sensor_id;sensor_type;location;lat;lon;timestamp;P1;durP1;ratioP1;P2;durP2;ratioP2
20306;SDS011;10312;52.434;13.206;2023-03-01T00:01:03;13.00;;;6.40;;
20306;SDS011;10312;52.434;13.206;2023-03-01T00:03:30;10.88;;;6.57;;
20306;SDS011;10312;52.434;13.206;2023-03-01T00:05:58;12.43;;;6.45;;
20306;SDS011;10312;52.434;13.206;2023-03-01T00:08:25;12.35;;;6.93;;
20306;SDS011;10312;52.434;13.206;2023-03-01T00:11:06;12.40;;;6.50;;
20306;SDS011;10312;52.434;13.206;2023-03-01T00:13:35;12.60;;;6.43;;
20306;SDS011;10312;52.434;13.206;2023-03-01T00:16:06;12.18;;;6.25;;
20306;SDS011;10312;52.434;13.206;2023-03-01T00:18:34;12.85;;;6.97;;
20306;SDS011;10312;52.434;13.206;2023-03-01T00:21:01;13.77;;;7.35;;
20306;SDS011;10312;52.434;13.206;2023-03-01T00:23:27;11.77;;;6.60;;
20306;SDS011;10312;52.434;13.206;2023-03-01T00:25:54;12.40;;;6.70;;
20306;SDS011;10312;52.434;13.206;2023-03-01T00:28:21;13.52;;;7.05;;
20306;SDS011;10312;52.434;13.206;2023-03-01T00:30:47;11.38;;;6.63;;
20306;SDS011;10312;52.434;13.206;2023-03-01T00:33:14;11.48;;;6.45;;
20306;SDS011;10312;52.434;13.206;2023-03-01T00:35:41;13.43;;;6.68;;
20306;SDS011;10312;52.434;13.206;2023-03-01T00:38:07;10.77;;;6.38;;
20306;SDS011;10312;52.434;13.206;2023-03-01T00:40:35;13.52;;;7.20;;
20306;SDS011;10312;52.434;13.206;2023-03-01T00:43:02;17.58;;;8.18;;
20306;SDS011;10312;52.434;13.206;2023-03-01T00:45:29;11.68;;;6.53;;
20306;SDS011;10312;52.434;13.206;2023-03-01T00:47:57;12.43;;;6.88;;
20306;SDS011;10312;52.434;13.206;2023-03-01T00:50:24;13.07;;;6.72;;
20306;SDS011;10312;52.434;13.206;2023-03-01T00:52:54;10.43;;;6.50;;
20306;SDS011;10312;52.434;13.206;2023-03-01T00:55:21;16.25;;;6.75;;
20306;SDS011;10312;52.434;13.206;2023-03-01T00:57:48;12.40;;;6.82;;
20306;SDS011;10312;52.434;13.206;2023-03-01T01:00:15;10.88;;;6.55;;
20306;SDS011;10312;52.434;13.206;2023-03-01T01:02:41;10.80;;;6.70;;
20306;SDS011;10312;52.434;13.206;2023-03-01T01:05:08;13.70;;;6.70;;
20306;SDS011;10312;52.434;13.206;2023-03-01T01:07:35;14.10;;;7.28;;
20306;SDS011;10312;52.434;13.206;2023-03-01T01:10:03;11.40;;;6.30;;
20306;SDS011;10312;52.434;13.206;2023-03-01T01:12:30;16.17;;;7.18;;
20306;SDS011;10312;52.434;13.206;2023-03-01T01:14:57;14.27;;;7.30;;
20306;SDS011;10312;52.434;13.206;2023-03-01T01:17:24;13.88;;;7.78;;
20306;SDS011;10312;52.434;13.206;2023-03-01T01:19:50;14.70;;;7.65;;
20306;SDS011;10312;52.434;13.206;2023-03-01T01:22:17;13.82;;;7.75;;
20306;SDS011;10312;52.434;13.206;2023-03-01T01:24:43;12.90;;;7.03;;
20306;SDS011;10312;52.434;13.206;2023-03-01T01:27:10;12.45;;;6.97;;
20306;SDS011;10312;52.434;13.206;2023-03-01T01:29:39;14.70;;;7.22;;
20306;SDS011;10312;52.434;13.206;2023-03-01T01:32:06;15.73;;;7.40;;
20306;SDS011;10312;52.434;13.206;2023-03-01T01:34:32;12.30;;;7.57;;
20306;SDS011;10312;52.434;13.206;2023-03-01T01:36:59;12.95;;;6.80;;
20306;SDS011;10312;52.434;13.206;2023-03-01T01:39:29;13.85;;;7.32;;
20306;SDS011;10312;52.434;13.206;2023-03-01T01:41:55;14.35;;;7.03;;
20306;SDS011;10312;52.434;13.206;2023-03-01T01:44:24;15.93;;;7.43;;
20306;SDS011;10312;52.434;13.206;2023-03-01T01:47:05;11.98;;;6.35;;
20306;SDS011;10312;52.434;13.206;2023-03-01T01:49:37;13.45;;;6.93;;
20306;SDS011;10312;52.434;13.206;2023-03-01T01:52:10;13.30;;;6.85;;
20306;SDS011;10312;52.434;13.206;2023-03-01T01:57:40;14.18;;;7.72;;
20306;SDS011;10312;52.434;13.206;2023-03-01T02:00:19;15.75;;;8.30;;
20306;SDS011;10312;52.434;13.206;2023-03-01T02:02:49;13.10;;;7.68;;
20306;SDS011;10312;52.434;13.206;2023-03-01T02:08:02;16.88;;;8.07;;
20306;SDS011;10312;52.434;13.206;2023-03-01T02:10:29;13.98;;;8.07;;
20306;SDS011;10312;52.434;13.206;2023-03-01T02:12:59;14.50;;;8.23;;
20306;SDS011;10312;52.434;13.206;2023-03-01T02:15:26;13.13;;;7.30;;
20306;SDS011;10312;52.434;13.206;2023-03-01T02:17:58;16.15;;;8.00;;
20306;SDS011;10312;52.434;13.206;2023-03-01T02:20:40;16.08;;;7.75;;
20306;SDS011;10312;52.434;13.206;2023-03-01T02:23:16;14.18;;;7.68;;
20306;SDS011;10312;52.434;13.206;2023-03-01T02:25:46;13.07;;;7.20;;
20306;SDS011;10312;52.434;13.206;2023-03-01T02:28:34;14.73;;;7.57;;
20306;SDS011;10312;52.434;13.206;2023-03-01T02:31:02;15.38;;;8.10;;
20306;SDS011;10312;52.434;13.206;2023-03-01T02:33:48;16.25;;;7.65;;
20306;SDS011;10312;52.434;13.206;2023-03-01T02:36:17;13.73;;;7.80;;
20306;SDS011;10312;52.434;13.206;2023-03-01T02:38:46;13.50;;;7.65;;
20306;SDS011;10312;52.434;13.206;2023-03-01T02:41:14;14.52;;;7.72;;
20306;SDS011;10312;52.434;13.206;2023-03-01T02:43:42;13.23;;;7.68;;
20306;SDS011;10312;52.434;13.206;2023-03-01T02:46:17;13.55;;;7.68;;
20306;SDS011;10312;52.434;13.206;2023-03-01T02:48:50;12.63;;;7.40;;
20306;SDS011;10312;52.434;13.206;2023-03-01T02:56:53;14.18;;;7.05;;
20306;SDS011;10312;52.434;13.206;2023-03-01T02:59:22;13.80;;;8.20;;
20306;SDS011;10312;52.434;13.206;2023-03-01T03:01:51;12.80;;;7.00;;
20306;SDS011;10312;52.434;13.206;2023-03-01T03:04:18;12.90;;;7.88;;
20306;SDS011;10312;52.434;13.206;2023-03-01T03:06:48;13.27;;;7.50;;
20306;SDS011;10312;52.434;13.206;2023-03-01T03:09:16;13.80;;;6.95;;
20306;SDS011;10312;52.434;13.206;2023-03-01T03:11:44;13.25;;;7.10;;
20306;SDS011;10312;52.434;13.206;2023-03-01T03:14:12;14.18;;;7.43;;
20306;SDS011;10312;52.434;13.206;2023-03-01T03:16:44;12.05;;;6.75;;
20306;SDS011;10312;52.434;13.206;2023-03-01T03:19:12;15.00;;;7.88;;
20306;SDS011;10312;52.434;13.206;2023-03-01T03:21:38;14.32;;;6.78;;
20306;SDS011;10312;52.434;13.206;2023-03-01T03:24:05;14.65;;;7.40;;
20306;SDS011;10312;52.434;13.206;2023-03-01T03:26:32;12.82;;;7.00;;
20306;SDS011;10312;52.434;13.206;2023-03-01T03:28:59;17.27;;;7.22;;
20306;SDS011;10312;52.434;13.206;2023-03-01T03:31:25;16.02;;;7.97;;
20306;SDS011;10312;52.434;13.206;2023-03-01T03:33:52;15.95;;;7.40;;
20306;SDS011;10312;52.434;13.206;2023-03-01T03:36:20;17.20;;;8.07;;
20306;SDS011;10312;52.434;13.206;2023-03-01T03:38:49;15.35;;;7.75;;
20306;SDS011;10312;52.434;13.206;2023-03-01T03:41:16;13.95;;;7.72;;
20306;SDS011;10312;52.434;13.206;2023-03-01T03:43:43;12.65;;;7.70;;
20306;SDS011;10312;52.434;13.206;2023-03-01T03:46:10;14.43;;;7.20;;
20306;SDS011;10312;52.434;13.206;2023-03-01T03:48:38;12.88;;;7.13;;
20306;SDS011;10312;52.434;13.206;2023-03-01T03:51:06;16.80;;;7.47;;
20306;SDS011;10312;52.434;13.206;2023-03-01T03:53:33;13.85;;;7.80;;
20306;SDS011;10312;52.434;13.206;2023-03-01T03:56:00;13.88;;;7.60;;
20306;SDS011;10312;52.434;13.206;2023-03-01T03:58:27;13.13;;;7.47;;
20306;SDS011;10312;52.434;13.206;2023-03-01T04:00:54;12.50;;;7.07;;
20306;SDS011;10312;52.434;13.206;2023-03-01T04:03:22;13.98;;;7.95;;
20306;SDS011;10312;52.434;13.206;2023-03-01T04:05:50;13.70;;;7.88;;
20306;SDS011;10312;52.434;13.206;2023-03-01T04:08:21;15.48;;;8.05;;
20306;SDS011;10312;52.434;13.206;2023-03-01T04:10:49;14.23;;;7.93;;
20306;SDS011;10312;52.434;13.206;2023-03-01T04:13:18;15.48;;;7.57;;
20306;SDS011;10312;52.434;13.206;2023-03-01T04:15:50;16.50;;;8.43;;
20306;SDS011;10312;52.434;13.206;2023-03-01T04:18:18;16.88;;;9.30;;
20306;SDS011;10312;52.434;13.206;2023-03-01T04:20:46;15.13;;;7.97;;
20306;SDS011;10312;52.434;13.206;2023-03-01T04:23:16;17.80;;;8.93;;
20306;SDS011;10312;52.434;13.206;2023-03-01T04:25:47;15.40;;;8.63;;
20306;SDS011;10312;52.434;13.206;2023-03-01T04:28:28;14.52;;;8.48;;
20306;SDS011;10312;52.434;13.206;2023-03-01T04:31:07;16.80;;;9.05;;
20306;SDS011;10312;52.434;13.206;2023-03-01T04:33:44;15.30;;;8.23;;
20306;SDS011;10312;52.434;13.206;2023-03-01T04:36:13;18.00;;;8.32;;
20306;SDS011;10312;52.434;13.206;2023-03-01T04:38:41;19.13;;;9.02;;
20306;SDS011;10312;52.434;13.206;2023-03-01T04:41:09;16.67;;;9.18;;
20306;SDS011;10312;52.434;13.206;2023-03-01T04:43:37;17.15;;;9.07;;
20306;SDS011;10312;52.434;13.206;2023-03-01T04:46:05;14.02;;;8.35;;
20306;SDS011;10312;52.434;13.206;2023-03-01T04:48:35;14.75;;;8.30;;
20306;SDS011;10312;52.434;13.206;2023-03-01T04:51:03;17.00;;;9.05;;
20306;SDS011;10312;52.434;13.206;2023-03-01T04:53:30;16.25;;;9.05;;
20306;SDS011;10312;52.434;13.206;2023-03-01T04:55:58;17.25;;;8.73;;
20306;SDS011;10312;52.434;13.206;2023-03-01T04:58:26;14.88;;;8.35;;
20306;SDS011;10312;52.434;13.206;2023-03-01T05:00:53;15.73;;;9.07;;
20306;SDS011;10312;52.434;13.206;2023-03-01T05:03:20;15.82;;;8.77;;
20306;SDS011;10312;52.434;13.206;2023-03-01T05:05:48;15.35;;;8.60;;
20306;SDS011;10312;52.434;13.206;2023-03-01T05:08:17;15.20;;;8.80;;
20306;SDS011;10312;52.434;13.206;2023-03-01T05:13:20;16.17;;;8.55;;
20306;SDS011;10312;52.434;13.206;2023-03-01T05:15:53;20.20;;;10.30;;
20306;SDS011;10312;52.434;13.206;2023-03-01T05:18:20;20.67;;;12.88;;
20306;SDS011;10312;52.434;13.206;2023-03-01T05:20:47;19.80;;;13.57;;
20306;SDS011;10312;52.434;13.206;2023-03-01T05:23:14;19.27;;;11.93;;
20306;SDS011;10312;52.434;13.206;2023-03-01T05:25:40;20.67;;;12.02;;
20306;SDS011;10312;52.434;13.206;2023-03-01T05:28:09;19.08;;;13.18;;
20306;SDS011;10312;52.434;13.206;2023-03-01T05:30:37;16.33;;;10.82;;
20306;SDS011;10312;52.434;13.206;2023-03-01T05:33:07;17.60;;;11.13;;
20306;SDS011;10312;52.434;13.206;2023-03-01T05:35:40;15.98;;;10.55;;
20306;SDS011;10312;52.434;13.206;2023-03-01T05:38:11;18.63;;;10.77;;
20306;SDS011;10312;52.434;13.206;2023-03-01T05:40:41;16.13;;;10.82;;
20306;SDS011;10312;52.434;13.206;2023-03-01T05:43:10;19.05;;;10.48;;
20306;SDS011;10312;52.434;13.206;2023-03-01T05:45:37;18.35;;;10.57;;
20306;SDS011;10312;52.434;13.206;2023-03-01T05:48:05;17.52;;;9.95;;
20306;SDS011;10312;52.434;13.206;2023-03-01T05:50:36;16.30;;;9.55;;
20306;SDS011;10312;52.434;13.206;2023-03-01T05:53:15;18.02;;;9.93;;
20306;SDS011;10312;52.434;13.206;2023-03-01T05:55:43;17.70;;;9.57;;
20306;SDS011;10312;52.434;13.206;2023-03-01T05:58:13;16.35;;;9.27;;
20306;SDS011;10312;52.434;13.206;2023-03-01T06:00:41;14.60;;;9.18;;
20306;SDS011;10312;52.434;13.206;2023-03-01T06:03:09;15.90;;;9.25;;
20306;SDS011;10312;52.434;13.206;2023-03-01T06:05:37;16.13;;;8.88;;
20306;SDS011;10312;52.434;13.206;2023-03-01T06:08:04;16.58;;;9.43;;
20306;SDS011;10312;52.434;13.206;2023-03-01T06:10:30;16.20;;;10.07;;
20306;SDS011;10312;52.434;13.206;2023-03-01T06:12:57;25.92;;;16.77;;
20306;SDS011;10312;52.434;13.206;2023-03-01T06:15:24;26.77;;;18.33;;
20306;SDS011;10312;52.434;13.206;2023-03-01T06:17:52;21.73;;;13.32;;
20306;SDS011;10312;52.434;13.206;2023-03-01T06:20:24;19.73;;;12.57;;
20306;SDS011;10312;52.434;13.206;2023-03-01T06:22:51;22.98;;;14.10;;
20306;SDS011;10312;52.434;13.206;2023-03-01T06:25:19;16.85;;;10.65;;
20306;SDS011;10312;52.434;13.206;2023-03-01T06:27:47;17.65;;;11.48;;
20306;SDS011;10312;52.434;13.206;2023-03-01T06:30:15;20.25;;;12.10;;
20306;SDS011;10312;52.434;13.206;2023-03-01T06:32:43;18.17;;;11.63;;
20306;SDS011;10312;52.434;13.206;2023-03-01T06:35:10;18.30;;;10.65;;
20306;SDS011;10312;52.434;13.206;2023-03-01T06:37:39;21.20;;;10.30;;
20306;SDS011;10312;52.434;13.206;2023-03-01T06:40:07;24.08;;;10.35;;
20306;SDS011;10312;52.434;13.206;2023-03-01T06:42:35;15.27;;;9.50;;
20306;SDS011;10312;52.434;13.206;2023-03-01T06:45:02;19.48;;;11.02;;
20306;SDS011;10312;52.434;13.206;2023-03-01T06:47:29;17.83;;;10.57;;
20306;SDS011;10312;52.434;13.206;2023-03-01T06:49:56;18.50;;;11.07;;
20306;SDS011;10312;52.434;13.206;2023-03-01T06:52:23;18.55;;;10.65;;
20306;SDS011;10312;52.434;13.206;2023-03-01T06:54:49;17.40;;;9.68;;
20306;SDS011;10312;52.434;13.206;2023-03-01T06:57:16;18.60;;;10.25;;
20306;SDS011;10312;52.434;13.206;2023-03-01T06:59:43;18.55;;;10.43;;
20306;SDS011;10312;52.434;13.206;2023-03-01T07:02:13;18.10;;;10.27;;
20306;SDS011;10312;52.434;13.206;2023-03-01T07:04:41;16.58;;;10.45;;
20306;SDS011;10312;52.434;13.206;2023-03-01T07:07:08;14.95;;;8.80;;
20306;SDS011;10312;52.434;13.206;2023-03-01T07:09:35;16.73;;;9.73;;
20306;SDS011;10312;52.434;13.206;2023-03-01T07:12:02;16.02;;;9.73;;
20306;SDS011;10312;52.434;13.206;2023-03-01T07:14:28;16.95;;;10.30;;
20306;SDS011;10312;52.434;13.206;2023-03-01T07:16:55;16.20;;;9.90;;
20306;SDS011;10312;52.434;13.206;2023-03-01T07:19:22;19.38;;;10.32;;
20306;SDS011;10312;52.434;13.206;2023-03-01T07:21:49;16.75;;;9.65;;
20306;SDS011;10312;52.434;13.206;2023-03-01T07:24:15;18.73;;;10.40;;
20306;SDS011;10312;52.434;13.206;2023-03-01T07:26:42;18.70;;;10.18;;
20306;SDS011;10312;52.434;13.206;2023-03-01T07:29:09;16.20;;;9.65;;
20306;SDS011;10312;52.434;13.206;2023-03-01T07:31:36;19.92;;;10.73;;
20306;SDS011;10312;52.434;13.206;2023-03-01T07:34:03;20.70;;;11.35;;
20306;SDS011;10312;52.434;13.206;2023-03-01T07:36:30;18.33;;;11.73;;
20306;SDS011;10312;52.434;13.206;2023-03-01T07:38:57;15.88;;;9.95;;
20306;SDS011;10312;52.434;13.206;2023-03-01T07:41:24;15.90;;;10.18;;
20306;SDS011;10312;52.434;13.206;2023-03-01T07:43:51;19.38;;;10.98;;
20306;SDS011;10312;52.434;13.206;2023-03-01T07:46:17;19.02;;;10.68;;
20306;SDS011;10312;52.434;13.206;2023-03-01T07:48:45;17.83;;;10.63;;
20306;SDS011;10312;52.434;13.206;2023-03-01T07:51:12;18.17;;;10.43;;
20306;SDS011;10312;52.434;13.206;2023-03-01T07:53:39;19.40;;;10.80;;
20306;SDS011;10312;52.434;13.206;2023-03-01T07:56:10;19.40;;;10.23;;
20306;SDS011;10312;52.434;13.206;2023-03-01T07:58:38;20.50;;;11.73;;
20306;SDS011;10312;52.434;13.206;2023-03-01T08:01:09;18.33;;;11.32;;
20306;SDS011;10312;52.434;13.206;2023-03-01T08:03:37;18.55;;;10.70;;
20306;SDS011;10312;52.434;13.206;2023-03-01T08:06:05;21.27;;;10.93;;
20306;SDS011;10312;52.434;13.206;2023-03-01T08:08:34;18.70;;;11.38;;
20306;SDS011;10312;52.434;13.206;2023-03-01T08:11:01;19.75;;;11.25;;
20306;SDS011;10312;52.434;13.206;2023-03-01T08:13:29;18.30;;;11.02;;
20306;SDS011;10312;52.434;13.206;2023-03-01T08:16:02;16.65;;;10.90;;
20306;SDS011;10312;52.434;13.206;2023-03-01T08:18:30;19.17;;;11.10;;
20306;SDS011;10312;52.434;13.206;2023-03-01T08:21:16;17.88;;;10.60;;
20306;SDS011;10312;52.434;13.206;2023-03-01T08:23:43;16.60;;;10.18;;
20306;SDS011;10312;52.434;13.206;2023-03-01T08:26:15;15.98;;;9.07;;
20306;SDS011;10312;52.434;13.206;2023-03-01T08:28:45;17.45;;;9.32;;
20306;SDS011;10312;52.434;13.206;2023-03-01T08:31:19;16.25;;;9.60;;
20306;SDS011;10312;52.434;13.206;2023-03-01T08:33:51;17.15;;;9.15;;
20306;SDS011;10312;52.434;13.206;2023-03-01T08:36:22;18.35;;;9.50;;
20306;SDS011;10312;52.434;13.206;2023-03-01T08:38:50;13.70;;;8.40;;
20306;SDS011;10312;52.434;13.206;2023-03-01T08:41:16;14.80;;;8.73;;
20306;SDS011;10312;52.434;13.206;2023-03-01T08:43:43;13.40;;;8.40;;
20306;SDS011;10312;52.434;13.206;2023-03-01T08:46:10;16.20;;;8.10;;
20306;SDS011;10312;52.434;13.206;2023-03-01T08:48:37;12.82;;;6.95;;
20306;SDS011;10312;52.434;13.206;2023-03-01T08:51:08;9.65;;;6.22;;
20306;SDS011;10312;52.434;13.206;2023-03-01T08:53:39;11.48;;;6.32;;
20306;SDS011;10312;52.434;13.206;2023-03-01T08:56:06;12.57;;;6.55;;
20306;SDS011;10312;52.434;13.206;2023-03-01T08:58:33;12.45;;;6.97;;
20306;SDS011;10312;52.434;13.206;2023-03-01T09:01:00;12.27;;;6.43;;
20306;SDS011;10312;52.434;13.206;2023-03-01T09:03:27;10.10;;;6.00;;
20306;SDS011;10312;52.434;13.206;2023-03-01T09:05:53;11.50;;;6.57;;
20306;SDS011;10312;52.434;13.206;2023-03-01T09:08:26;11.27;;;6.35;;
20306;SDS011;10312;52.434;13.206;2023-03-01T09:10:53;10.70;;;6.72;;
20306;SDS011;10312;52.434;13.206;2023-03-01T09:13:20;8.90;;;5.70;;
20306;SDS011;10312;52.434;13.206;2023-03-01T09:15:47;10.98;;;6.53;;
20306;SDS011;10312;52.434;13.206;2023-03-01T09:18:13;10.63;;;6.20;;
20306;SDS011;10312;52.434;13.206;2023-03-01T09:20:40;11.40;;;6.78;;
20306;SDS011;10312;52.434;13.206;2023-03-01T09:23:07;10.77;;;6.13;;
20306;SDS011;10312;52.434;13.206;2023-03-01T09:25:34;11.70;;;6.07;;
20306;SDS011;10312;52.434;13.206;2023-03-01T09:28:01;9.68;;;5.57;;
20306;SDS011;10312;52.434;13.206;2023-03-01T09:30:28;9.80;;;5.60;;
20306;SDS011;10312;52.434;13.206;2023-03-01T09:32:56;12.07;;;5.82;;
20306;SDS011;10312;52.434;13.206;2023-03-01T09:35:23;8.80;;;5.47;;
20306;SDS011;10312;52.434;13.206;2023-03-01T09:37:49;11.50;;;5.60;;
20306;SDS011;10312;52.434;13.206;2023-03-01T09:40:17;11.40;;;5.95;;
20306;SDS011;10312;52.434;13.206;2023-03-01T09:43:05;12.57;;;6.30;;
20306;SDS011;10312;52.434;13.206;2023-03-01T09:45:35;10.35;;;5.75;;
20306;SDS011;10312;52.434;13.206;2023-03-01T09:48:05;8.68;;;4.93;;
20306;SDS011;10312;52.434;13.206;2023-03-01T09:50:36;11.82;;;6.15;;
20306;SDS011;10312;52.434;13.206;2023-03-01T09:53:06;10.80;;;5.65;;
20306;SDS011;10312;52.434;13.206;2023-03-01T09:55:38;9.55;;;5.18;;
20306;SDS011;10312;52.434;13.206;2023-03-01T09:58:24;8.93;;;4.35;;
20306;SDS011;10312;52.434;13.206;2023-03-01T10:00:56;11.10;;;4.60;;
20306;SDS011;10312;52.434;13.206;2023-03-01T10:03:36;7.82;;;4.55;;
20306;SDS011;10312;52.434;13.206;2023-03-01T10:06:20;8.00;;;4.47;;
20306;SDS011;10312;52.434;13.206;2023-03-01T10:09:13;7.20;;;4.20;;
20306;SDS011;10312;52.434;13.206;2023-03-01T10:11:43;8.57;;;4.60;;
20306;SDS011;10312;52.434;13.206;2023-03-01T10:17:02;7.18;;;4.13;;
20306;SDS011;10312;52.434;13.206;2023-03-01T10:22:04;6.85;;;4.20;;
20306;SDS011;10312;52.434;13.206;2023-03-01T10:24:35;7.20;;;3.60;;
20306;SDS011;10312;52.434;13.206;2023-03-01T10:27:05;6.72;;;3.47;;
20306;SDS011;10312;52.434;13.206;2023-03-01T10:29:37;7.15;;;3.42;;
20306;SDS011;10312;52.434;13.206;2023-03-01T10:32:10;7.63;;;3.42;;
20306;SDS011;10312;52.434;13.206;2023-03-01T10:34:37;6.05;;;3.50;;
20306;SDS011;10312;52.434;13.206;2023-03-01T10:42:57;6.75;;;3.60;;
20306;SDS011;10312;52.434;13.206;2023-03-01T10:45:38;10.18;;;3.90;;
20306;SDS011;10312;52.434;13.206;2023-03-01T10:48:16;7.22;;;3.70;;
20306;SDS011;10312;52.434;13.206;2023-03-01T10:56:04;8.45;;;3.90;;
20306;SDS011;10312;52.434;13.206;2023-03-01T10:58:33;6.03;;;3.78;;
20306;SDS011;10312;52.434;13.206;2023-03-01T11:01:03;9.20;;;3.85;;
20306;SDS011;10312;52.434;13.206;2023-03-01T11:03:33;8.27;;;3.80;;
20306;SDS011;10312;52.434;13.206;2023-03-01T11:08:40;6.85;;;4.40;;
20306;SDS011;10312;52.434;13.206;2023-03-01T11:16:41;9.02;;;5.30;;
20306;SDS011;10312;52.434;13.206;2023-03-01T11:24:10;10.20;;;5.03;;
20306;SDS011;10312;52.434;13.206;2023-03-01T11:26:40;9.20;;;5.00;;
20306;SDS011;10312;52.434;13.206;2023-03-01T11:29:15;10.88;;;4.85;;
20306;SDS011;10312;52.434;13.206;2023-03-01T11:31:59;7.05;;;4.43;;
20306;SDS011;10312;52.434;13.206;2023-03-01T11:37:12;7.03;;;4.20;;
20306;SDS011;10312;52.434;13.206;2023-03-01T11:39:53;8.45;;;4.05;;
20306;SDS011;10312;52.434;13.206;2023-03-01T11:42:28;11.55;;;4.07;;
20306;SDS011;10312;52.434;13.206;2023-03-01T11:45:06;7.03;;;4.10;;
20306;SDS011;10312;52.434;13.206;2023-03-01T11:47:41;7.53;;;3.72;;
20306;SDS011;10312;52.434;13.206;2023-03-01T11:53:05;6.10;;;3.40;;
20306;SDS011;10312;52.434;13.206;2023-03-01T11:58:39;4.97;;;3.10;;
20306;SDS011;10312;52.434;13.206;2023-03-01T12:01:28;6.63;;;2.65;;
20306;SDS011;10312;52.434;13.206;2023-03-01T12:06:59;4.93;;;2.75;;
20306;SDS011;10312;52.434;13.206;2023-03-01T12:09:32;4.38;;;2.92;;
20306;SDS011;10312;52.434;13.206;2023-03-01T12:12:26;5.35;;;3.28;;
20306;SDS011;10312;52.434;13.206;2023-03-01T12:21:10;7.40;;;3.40;;
20306;SDS011;10312;52.434;13.206;2023-03-01T12:24:02;6.82;;;2.70;;
20306;SDS011;10312;52.434;13.206;2023-03-01T12:26:43;5.72;;;2.30;;
20306;SDS011;10312;52.434;13.206;2023-03-01T12:29:25;3.55;;;2.28;;
20306;SDS011;10312;52.434;13.206;2023-03-01T12:34:33;8.00;;;2.47;;
20306;SDS011;10312;52.434;13.206;2023-03-01T12:37:25;5.03;;;2.30;;
20306;SDS011;10312;52.434;13.206;2023-03-01T12:42:53;3.88;;;2.35;;
20306;SDS011;10312;52.434;13.206;2023-03-01T12:45:44;5.53;;;2.53;;
20306;SDS011;10312;52.434;13.206;2023-03-01T12:48:24;3.70;;;2.22;;
20306;SDS011;10312;52.434;13.206;2023-03-01T12:51:24;3.83;;;2.22;;
20306;SDS011;10312;52.434;13.206;2023-03-01T12:53:53;3.53;;;2.00;;
20306;SDS011;10312;52.434;13.206;2023-03-01T12:56:27;3.60;;;2.00;;
20306;SDS011;10312;52.434;13.206;2023-03-01T12:59:12;4.55;;;1.80;;
20306;SDS011;10312;52.434;13.206;2023-03-01T13:01:54;6.80;;;2.20;;
20306;SDS011;10312;52.434;13.206;2023-03-01T13:04:35;5.25;;;2.05;;
20306;SDS011;10312;52.434;13.206;2023-03-01T13:13:07;7.03;;;2.67;;
20306;SDS011;10312;52.434;13.206;2023-03-01T13:15:39;8.00;;;2.40;;
20306;SDS011;10312;52.434;13.206;2023-03-01T13:23:51;3.63;;;1.88;;
20306;SDS011;10312;52.434;13.206;2023-03-01T13:26:16;3.72;;;2.42;;
20306;SDS011;10312;52.434;13.206;2023-03-01T13:33:52;5.32;;;2.22;;
20306;SDS011;10312;52.434;13.206;2023-03-01T13:39:03;4.45;;;2.28;;
20306;SDS011;10312;52.434;13.206;2023-03-01T13:46:49;6.25;;;2.40;;
20306;SDS011;10312;52.434;13.206;2023-03-01T13:49:18;4.78;;;2.30;;
20306;SDS011;10312;52.434;13.206;2023-03-01T13:51:47;4.28;;;2.15;;
20306;SDS011;10312;52.434;13.206;2023-03-01T13:54:15;5.70;;;2.42;;
20306;SDS011;10312;52.434;13.206;2023-03-01T13:56:44;9.68;;;3.35;;
20306;SDS011;10312;52.434;13.206;2023-03-01T13:59:16;5.72;;;2.67;;
20306;SDS011;10312;52.434;13.206;2023-03-01T14:01:44;10.75;;;2.90;;
20306;SDS011;10312;52.434;13.206;2023-03-01T14:04:28;8.93;;;3.65;;
20306;SDS011;10312;52.434;13.206;2023-03-01T14:07:17;5.05;;;2.70;;
20306;SDS011;10312;52.434;13.206;2023-03-01T14:09:51;6.82;;;2.90;;
20306;SDS011;10312;52.434;13.206;2023-03-01T14:12:23;6.47;;;2.85;;
20306;SDS011;10312;52.434;13.206;2023-03-01T14:20:23;6.07;;;3.10;;
20306;SDS011;10312;52.434;13.206;2023-03-01T14:22:55;5.20;;;3.00;;
20306;SDS011;10312;52.434;13.206;2023-03-01T14:25:28;5.32;;;2.83;;
20306;SDS011;10312;52.434;13.206;2023-03-01T14:30:33;7.97;;;2.95;;
20306;SDS011;10312;52.434;13.206;2023-03-01T14:33:05;6.88;;;2.92;;
20306;SDS011;10312;52.434;13.206;2023-03-01T14:35:52;5.88;;;2.97;;
20306;SDS011;10312;52.434;13.206;2023-03-01T14:38:31;5.00;;;3.03;;
20306;SDS011;10312;52.434;13.206;2023-03-01T14:41:07;7.90;;;3.55;;
20306;SDS011;10312;52.434;13.206;2023-03-01T14:43:36;8.20;;;2.92;;
20306;SDS011;10312;52.434;13.206;2023-03-01T14:46:04;4.40;;;2.95;;
20306;SDS011;10312;52.434;13.206;2023-03-01T14:48:31;7.40;;;3.00;;
20306;SDS011;10312;52.434;13.206;2023-03-01T14:50:58;7.50;;;2.50;;
20306;SDS011;10312;52.434;13.206;2023-03-01T14:53:27;8.60;;;2.55;;
20306;SDS011;10312;52.434;13.206;2023-03-01T14:55:55;5.35;;;2.75;;
20306;SDS011;10312;52.434;13.206;2023-03-01T14:58:28;4.55;;;2.30;;
20306;SDS011;10312;52.434;13.206;2023-03-01T15:00:59;7.90;;;2.83;;
20306;SDS011;10312;52.434;13.206;2023-03-01T15:03:37;5.07;;;2.42;;
20306;SDS011;10312;52.434;13.206;2023-03-01T15:06:07;6.53;;;2.60;;
20306;SDS011;10312;52.434;13.206;2023-03-01T15:08:35;5.07;;;2.17;;
20306;SDS011;10312;52.434;13.206;2023-03-01T15:11:22;5.40;;;2.53;;
20306;SDS011;10312;52.434;13.206;2023-03-01T15:13:55;3.72;;;1.90;;
20306;SDS011;10312;52.434;13.206;2023-03-01T15:16:31;4.82;;;1.92;;
20306;SDS011;10312;52.434;13.206;2023-03-01T15:19:00;6.10;;;2.22;;
20306;SDS011;10312;52.434;13.206;2023-03-01T15:21:37;5.68;;;2.25;;
20306;SDS011;10312;52.434;13.206;2023-03-01T15:26:50;6.50;;;2.58;;
20306;SDS011;10312;52.434;13.206;2023-03-01T15:29:28;4.65;;;2.25;;
20306;SDS011;10312;52.434;13.206;2023-03-01T15:31:57;6.55;;;2.20;;
20306;SDS011;10312;52.434;13.206;2023-03-01T15:34:32;5.72;;;2.40;;
20306;SDS011;10312;52.434;13.206;2023-03-01T15:37:04;4.53;;;2.22;;
20306;SDS011;10312;52.434;13.206;2023-03-01T15:42:13;4.72;;;2.03;;
20306;SDS011;10312;52.434;13.206;2023-03-01T15:47:47;5.43;;;1.95;;
20306;SDS011;10312;52.434;13.206;2023-03-01T15:50:20;3.15;;;2.00;;
20306;SDS011;10312;52.434;13.206;2023-03-01T15:52:49;3.65;;;1.77;;
20306;SDS011;10312;52.434;13.206;2023-03-01T15:55:20;4.07;;;1.95;;
20306;SDS011;10312;52.434;13.206;2023-03-01T15:58:00;4.93;;;2.10;;
20306;SDS011;10312;52.434;13.206;2023-03-01T16:00:28;4.05;;;2.03;;
20306;SDS011;10312;52.434;13.206;2023-03-01T16:02:55;6.13;;;2.38;;
20306;SDS011;10312;52.434;13.206;2023-03-01T16:05:23;5.22;;;2.40;;
20306;SDS011;10312;52.434;13.206;2023-03-01T16:07:56;3.80;;;1.73;;
20306;SDS011;10312;52.434;13.206;2023-03-01T16:10:23;3.25;;;1.85;;
20306;SDS011;10312;52.434;13.206;2023-03-01T16:12:50;5.82;;;2.42;;
20306;SDS011;10312;52.434;13.206;2023-03-01T16:15:23;4.15;;;2.03;;
20306;SDS011;10312;52.434;13.206;2023-03-01T16:17:51;6.25;;;2.00;;
20306;SDS011;10312;52.434;13.206;2023-03-01T16:20:21;4.72;;;2.05;;
20306;SDS011;10312;52.434;13.206;2023-03-01T16:22:57;8.15;;;2.40;;
20306;SDS011;10312;52.434;13.206;2023-03-01T16:25:24;4.07;;;1.83;;
20306;SDS011;10312;52.434;13.206;2023-03-01T16:27:51;4.70;;;2.15;;
20306;SDS011;10312;52.434;13.206;2023-03-01T16:30:19;3.75;;;2.00;;